Date,TemperatureHighF,TemperatureAvgF,TemperatureLowF,DewpointHighF,DewpointAvgF,DewpointLowF,HumidityHigh,HumidityAvg,HumidityLow,PressureMaxIn,PressureMinIn,WindSpeedMaxMPH,WindSpeedAvgMPH,GustSpeedMaxMPH,PrecipitationSumIn
2013-12-1,62.8,58.8,52.7,57.1,52.7,47.2,86,80,74,30.06,29.93,17,5,17,0.08
2013-12-2,64.2,59.0,56.5,56.9,54.1,50.4,90,84,74,30.08,29.94,18,5,18,0.90
2013-12-3,57.0,49.6,45.0,50.9,40.2,34.8,81,70,62,30.19,30.06,29,13,29,0.01
2013-12-4,48.7,45.5,43.0,38.8,35.9,34.2,81,69,60,30.15,30.04,28,13,28,0.00
2013-12-5,46.6,46.6,46.6,34.3,34.3,34.3,62,62,62,30.06,30.06,15,15,15,0.00
2013-12-6,59.5,51.0,40.6,44.5,36.8,29.5,78,59,39,30.06,29.86,15,6,15,0.00
2013-12-7,57.4,50.6,46.8,46.9,38.5,27.7,82,64,45,30.23,29.85,22,4,22,0.00
2013-12-8,52.7,47.2,42.1,29.2,25.7,20.4,55,43,29,30.42,30.22,22,5,22,0.00
2013-12-9,57.4,48.4,38.7,39.0,30.5,21.5,69,51,26,30.43,30.17,14,2,14,0.00
2013-12-10,59.2,51.0,44.1,43.7,36.4,30.9,82,59,38,30.39,30.10,24,7,24,0.00
2013-12-11,43.9,41.4,39.9,30.5,24.7,21.2,59,51,43,30.51,30.39,24,8,24,0.00
2013-12-12,50.4,44.4,38.3,36.3,28.7,20.4,69,55,34,30.47,30.24,18,5,18,0.00
2013-12-13,49.1,46.8,43.7,40.7,39.0,35.3,82,74,66,30.26,30.15,10,2,10,0.00
2013-12-14,58.1,48.5,40.1,41.7,38.5,34.2,82,69,45,30.38,30.21,6,1,6,0.00
2013-12-15,59.7,52.3,46.8,48.6,45.0,40.8,85,76,62,30.38,30.29,8,1,8,0.00
2013-12-16,56.5,51.7,48.2,46.6,43.0,37.6,84,72,59,30.40,30.30,20,6,20,0.00
2013-12-17,50.2,48.0,46.0,39.6,37.7,33.9,74,67,56,30.44,30.36,20,6,20,0.00
2013-12-18,48.7,46.5,44.6,39.3,37.1,35.2,73,70,63,30.36,30.23,22,8,22,0.00
2013-12-19,54.0,47.5,43.7,39.0,37.1,34.6,77,67,53,30.31,30.22,17,6,17,0.00
2013-12-20,57.9,47.6,39.9,40.6,35.7,29.5,78,65,35,30.48,30.31,7,2,7,0.00
2013-12-21,59.5,48.8,41.2,42.2,37.6,33.6,80,66,51,30.53,30.46,5,1,5,0.00
2013-12-22,64.2,50.1,41.2,40.7,35.8,30.8,71,59,38,30.52,30.39,10,2,10,0.00
2013-12-23,61.5,50.1,43.5,43.6,39.3,34.1,77,67,45,30.41,30.27,13,4,13,0.00
2013-12-24,53.4,50.6,48.0,45.7,43.3,41.2,79,76,70,30.33,30.19,16,3,16,0.00
2013-12-25,61.9,55.1,51.4,50.4,48.2,45.1,84,78,64,30.22,30.05,15,6,15,0.00
2013-12-26,62.4,57.0,51.4,54.0,50.3,46.8,85,79,65,30.06,29.86,18,4,18,0.00
2013-12-27,59.4,55.9,52.3,54.5,51.6,48.9,91,86,75,29.86,29.78,26,5,26,1.68
2013-12-28,59.0,54.4,51.8,50.2,48.2,42.0,89,80,61,29.93,29.80,21,7,21,0.05
2013-12-29,62.2,55.4,49.1,45.1,42.8,38.7,75,63,50,30.08,29.91,22,6,24,0.00
2013-12-30,64.0,53.2,45.1,45.0,42.0,38.4,78,66,48,30.13,30.04,9,1,9,0.00
2013-12-31,52.2,49.4,46.6,43.8,40.7,39.4,77,72,67,30.19,30.10,16,5,16,0.00